createdAt,value
2019-05-01T00:01:14.348Z,100712.55
2019-05-01T00:06:16.826Z,100709.47
2019-05-01T00:11:19.289Z,100696.81
2019-05-01T00:16:21.770Z,100701.93
2019-05-01T00:21:24.253Z,100706.46
2019-05-01T00:26:26.707Z,100698.00
2019-05-01T00:31:29.178Z,100699.77
2019-05-01T00:36:31.656Z,100690.98
2019-05-01T00:41:34.133Z,100681.66
2019-05-01T00:46:36.608Z,100686.67
2019-05-01T00:51:39.080Z,100685.88
2019-05-01T00:56:47.382Z,100688.17
2019-05-01T01:01:49.861Z,100673.88
2019-05-01T01:06:52.338Z,100673.23
2019-05-01T01:11:54.814Z,100675.44
2019-05-01T01:16:57.267Z,100672.16
2019-05-01T01:21:59.735Z,100671.91
2019-05-01T01:27:02.219Z,100676.52
2019-05-01T01:32:04.688Z,100676.06
2019-05-01T01:37:07.154Z,100670.47
2019-05-01T01:42:09.613Z,100671.41
2019-05-01T01:47:12.074Z,100661.22
2019-05-01T01:52:14.547Z,100666.03
2019-05-01T01:57:17.016Z,100663.56
2019-05-01T02:02:19.481Z,100668.92
2019-05-01T02:07:21.941Z,100659.12
2019-05-01T02:12:24.409Z,100663.74
2019-05-01T02:17:26.881Z,100658.45
2019-05-01T02:22:29.345Z,100656.87
2019-05-01T02:27:47.099Z,100651.86
2019-05-01T02:32:49.564Z,100650.35
2019-05-01T02:37:52.232Z,100642.64
2019-05-01T02:42:54.697Z,100652.36
2019-05-01T02:47:57.163Z,100642.88
2019-05-01T02:52:59.624Z,100645.05
2019-05-01T02:58:02.095Z,100635.75
2019-05-01T03:03:04.556Z,100640.13
2019-05-01T03:08:07.020Z,100639.38
2019-05-01T03:13:09.478Z,100642.69
2019-05-01T03:18:27.127Z,100639.94
2019-05-01T03:23:32.554Z,100647.30
2019-05-01T03:28:35.019Z,100643.95
2019-05-01T03:33:37.494Z,100642.70
2019-05-01T03:38:39.959Z,100645.38
2019-05-01T03:43:42.416Z,100645.69
2019-05-01T03:48:44.879Z,100655.03
2019-05-01T03:53:47.350Z,100646.92
2019-05-01T03:58:49.817Z,100641.19
2019-05-01T04:03:52.297Z,100638.09
2019-05-01T04:08:56.514Z,100640.91
2019-05-01T04:13:57.235Z,100644.31
2019-05-01T04:18:59.681Z,100646.77
2019-05-01T04:24:02.138Z,100647.31
2019-05-01T04:29:13.668Z,100646.22
2019-05-01T04:34:22.143Z,100649.48
2019-05-01T04:39:24.612Z,100648.58
2019-05-01T04:44:27.071Z,100654.81
2019-05-01T04:49:29.534Z,100657.34
2019-05-01T04:54:31.988Z,100657.04
2019-05-01T04:59:34.447Z,100655.62
2019-05-01T05:04:36.910Z,100659.54
2019-05-01T05:09:42.308Z,100659.56
2019-05-01T05:14:44.756Z,100661.66
2019-05-01T05:19:47.226Z,100659.56
2019-05-01T05:24:49.722Z,100664.84
2019-05-01T05:29:52.201Z,100665.82
2019-05-01T05:34:54.676Z,100666.19
2019-05-01T05:39:57.148Z,100666.67
2019-05-01T05:44:59.622Z,100667.59
2019-05-01T05:50:02.102Z,100674.05
2019-05-01T05:55:04.582Z,100671.02
2019-05-01T06:00:25.080Z,100677.82
2019-05-01T06:05:30.508Z,100671.89
2019-05-01T06:10:32.981Z,100674.06
2019-05-01T06:15:36.629Z,100670.77
2019-05-01T06:20:47.122Z,100669.52
2019-05-01T06:25:54.173Z,100664.22
2019-05-01T06:30:52.180Z,100670.06
2019-05-01T06:35:54.708Z,100670.24
2019-05-01T06:40:58.133Z,100667.02
2019-05-01T06:46:13.304Z,100672.05
2019-05-01T06:51:32.344Z,100680.94
2019-05-01T06:56:34.822Z,100675.13
2019-05-01T07:01:37.336Z,100681.15
2019-05-01T07:06:39.817Z,100683.30
2019-05-01T07:11:42.722Z,100682.30
2019-05-01T07:16:44.754Z,100681.80
2019-05-01T07:21:47.223Z,100683.98
2019-05-01T07:26:49.702Z,100676.36
2019-05-01T07:31:52.174Z,100680.14
2019-05-01T07:36:54.647Z,100675.61
2019-05-01T07:41:57.123Z,100673.70
2019-05-01T07:47:05.447Z,100676.10
2019-05-01T07:52:08.038Z,100668.80
2019-05-01T07:57:10.500Z,100667.75
2019-05-01T08:02:12.979Z,100666.98
2019-05-01T08:07:15.436Z,100668.04
2019-05-01T08:12:18.852Z,100676.20
2019-05-01T08:17:20.395Z,100672.69
2019-05-01T08:22:22.880Z,100681.37
2019-05-01T08:27:28.264Z,100683.94
2019-05-01T08:32:39.128Z,100685.34
2019-05-01T08:37:39.116Z,100669.17
2019-05-01T08:42:42.688Z,100669.31
2019-05-01T08:47:44.011Z,100673.06
2019-05-01T08:52:47.473Z,100669.41
2019-05-01T08:57:48.962Z,100662.21
2019-05-01T09:02:51.409Z,100659.84
2019-05-01T09:07:56.032Z,100665.98
2019-05-01T09:12:56.311Z,100656.83
2019-05-01T09:17:58.769Z,100655.42
2019-05-01T09:23:01.238Z,100642.77
2019-05-01T09:28:04.281Z,100640.84
2019-05-01T09:33:06.129Z,100636.73
2019-05-01T09:38:08.612Z,100632.05
2019-05-01T09:43:11.077Z,100626.77
2019-05-01T09:48:13.549Z,100628.35
2019-05-01T09:53:34.209Z,100618.36
2019-05-01T09:58:33.783Z,100617.08
2019-05-01T10:03:36.242Z,100607.98
2019-05-01T10:08:40.053Z,100596.03
2019-05-01T10:13:41.189Z,100596.56
2019-05-01T10:18:43.669Z,100567.78
2019-05-01T10:23:47.131Z,100557.80
2019-05-01T10:29:00.814Z,100546.74
2019-05-01T10:34:07.551Z,100546.97
2019-05-01T10:39:05.760Z,100530.97
2019-05-01T10:44:08.233Z,100523.03
2019-05-01T10:49:10.699Z,100521.79
2019-05-01T10:54:13.161Z,100518.28
2019-05-01T10:59:15.648Z,100517.61
2019-05-01T11:04:18.171Z,100517.19
2019-05-01T11:09:20.643Z,100522.27
2019-05-01T11:14:23.119Z,100520.33
2019-05-01T11:19:25.586Z,100523.23
2019-05-01T11:24:28.044Z,100520.53
2019-05-01T11:29:30.501Z,100509.38
2019-05-01T11:34:51.313Z,100494.91
2019-05-01T11:39:59.909Z,100479.08
2019-05-01T11:45:02.417Z,100483.64
2019-05-01T11:50:04.873Z,100468.23
2019-05-01T11:55:07.325Z,100481.19
2019-05-01T12:00:09.777Z,100461.15
2019-05-01T12:05:12.247Z,100463.54
2019-05-01T12:10:14.713Z,100457.97
2019-05-01T12:15:17.189Z,100453.87
2019-05-01T12:20:19.642Z,100464.02
2019-05-01T12:25:22.099Z,100441.69
2019-05-01T12:30:24.578Z,100436.56
2019-05-01T12:35:27.046Z,100432.34
2019-05-01T12:40:29.503Z,100421.80
2019-05-01T12:45:32.037Z,100410.23
2019-05-01T12:50:34.517Z,100408.48
2019-05-01T12:55:55.254Z,100402.19
2019-05-01T13:00:57.709Z,100395.47
2019-05-01T13:06:00.180Z,100392.90
2019-05-01T13:11:02.641Z,100383.94
2019-05-01T13:16:05.120Z,100381.63
2019-05-01T13:21:07.578Z,100386.34
2019-05-01T13:26:10.048Z,100369.94
2019-05-01T13:31:12.512Z,100351.75
2019-05-01T13:36:15.015Z,100352.46
2019-05-01T13:41:17.483Z,100352.53
2019-05-01T13:46:19.995Z,100347.25
2019-05-01T13:51:22.449Z,100336.37
2019-05-01T13:56:25.517Z,100329.92
2019-05-01T14:01:27.809Z,100322.66
2019-05-01T14:06:30.264Z,100319.41
2019-05-01T14:11:32.732Z,100312.56
2019-05-01T14:16:35.211Z,100307.49
2019-05-01T14:21:37.737Z,100304.28
2019-05-01T14:26:40.181Z,100299.95
2019-05-01T14:31:42.700Z,100290.73
2019-05-01T14:36:45.181Z,100290.97
2019-05-01T14:41:47.651Z,100287.67
2019-05-01T14:46:50.105Z,100284.97
2019-05-01T14:51:52.583Z,100281.81
2019-05-01T14:56:55.047Z,100274.84
2019-05-01T15:01:57.498Z,100269.53
2019-05-01T15:06:59.972Z,100265.69
2019-05-01T15:12:02.442Z,100255.38
2019-05-01T15:17:04.901Z,100253.88
2019-05-01T15:22:07.364Z,100258.16
2019-05-01T15:27:09.822Z,100249.02
2019-05-01T15:32:12.375Z,100254.20
2019-05-01T15:37:14.845Z,100244.39
2019-05-01T15:42:29.530Z,100244.47
2019-05-01T15:47:31.996Z,100240.39
2019-05-01T15:52:34.487Z,100240.92
2019-05-01T15:57:36.976Z,100233.71
2019-05-01T16:02:39.427Z,100233.11
2019-05-01T16:07:41.894Z,100228.53
2019-05-01T16:12:44.358Z,100232.06
2019-05-01T16:17:46.813Z,100228.62
2019-05-01T16:22:49.297Z,100217.83
2019-05-01T16:27:51.776Z,100221.66
2019-05-01T16:32:54.248Z,100215.18
2019-05-01T16:37:56.724Z,100214.53
2019-05-01T16:42:59.173Z,100207.14
2019-05-01T16:48:01.635Z,100213.12
2019-05-01T16:53:04.143Z,100207.12
2019-05-01T16:58:06.629Z,100199.55
2019-05-01T17:03:14.964Z,100197.42
2019-05-01T17:08:20.442Z,100200.63
2019-05-01T17:13:22.909Z,100192.47
2019-05-01T17:18:25.360Z,100194.21
2019-05-01T17:23:27.818Z,100193.14
2019-05-01T17:28:32.698Z,100196.02
2019-05-01T17:33:32.931Z,100190.30
2019-05-01T17:38:35.391Z,100187.59
2019-05-01T17:43:37.894Z,100192.55
2019-05-01T17:48:40.360Z,100188.25
2019-05-01T17:53:42.828Z,100196.77
2019-05-01T17:58:45.308Z,100185.25
2019-05-01T18:03:53.950Z,100189.66
2019-05-01T18:09:02.874Z,100194.08
2019-05-01T18:13:58.884Z,100186.24
2019-05-01T18:19:01.597Z,100185.22
2019-05-01T18:24:10.299Z,100185.39
2019-05-01T18:29:12.792Z,100181.97
2019-05-01T18:34:15.276Z,100190.85
2019-05-01T18:39:25.807Z,100188.92
2019-05-01T18:44:26.201Z,100191.23
2019-05-01T18:49:28.666Z,100193.34
2019-05-01T18:54:35.022Z,100196.27
2019-05-01T18:59:33.658Z,100196.97
2019-05-01T19:04:37.792Z,100196.89
2019-05-01T19:09:38.596Z,100201.42
2019-05-01T19:14:41.083Z,100205.33
2019-05-01T19:19:43.620Z,100205.02
2019-05-01T19:24:46.119Z,100202.13
2019-05-01T19:29:48.595Z,100199.28
2019-05-01T19:34:51.090Z,100204.08
2019-05-01T19:39:54.981Z,100198.27
2019-05-01T19:44:57.443Z,100210.30
2019-05-01T19:50:06.659Z,100207.83
2019-05-01T19:55:01.344Z,100197.53
2019-05-01T20:00:03.483Z,100202.32
2019-05-01T20:05:05.931Z,100204.28
2019-05-01T20:10:08.427Z,100204.40
2019-05-01T20:15:10.895Z,100200.55
2019-05-01T20:20:13.357Z,100204.47
2019-05-01T20:25:19.397Z,100194.70
2019-05-01T20:30:18.358Z,100190.80
2019-05-01T20:35:23.882Z,100181.00
2019-05-01T20:40:23.352Z,100183.95
2019-05-01T20:45:25.870Z,100182.59
2019-05-01T20:50:28.306Z,100179.48
2019-05-01T20:55:30.784Z,100176.74
2019-05-01T21:00:33.333Z,100170.86
2019-05-01T21:05:35.792Z,100172.85
2019-05-01T21:10:51.074Z,100178.55
2019-05-01T21:15:56.456Z,100174.64
2019-05-01T21:20:56.232Z,100169.93
2019-05-01T21:25:58.710Z,100170.11
2019-05-01T21:31:01.190Z,100167.38
2019-05-01T21:36:04.864Z,100166.97
2019-05-01T21:41:06.170Z,100163.64
2019-05-01T21:46:08.640Z,100157.35
2019-05-01T21:51:12.576Z,100159.70
2019-05-01T21:56:13.572Z,100162.83
2019-05-01T22:01:16.089Z,100154.75
2019-05-01T22:06:18.589Z,100164.56
2019-05-01T22:11:21.052Z,100160.61
2019-05-01T22:16:23.705Z,100159.63
2019-05-01T22:21:25.993Z,100158.59
2019-05-01T22:26:28.459Z,100151.55
2019-05-01T22:31:52.931Z,100150.37
2019-05-01T22:36:51.212Z,100149.32
2019-05-01T22:41:53.675Z,100144.38
2019-05-01T22:46:56.144Z,100141.04
2019-05-01T22:51:58.621Z,100141.59
2019-05-01T22:57:01.082Z,100140.05
2019-05-01T23:02:03.539Z,100135.79
2019-05-01T23:07:06.016Z,100140.20
2019-05-01T23:12:08.487Z,100137.26
2019-05-01T23:17:10.949Z,100136.87
2019-05-01T23:22:13.418Z,100132.73
2019-05-01T23:27:15.876Z,100128.80
2019-05-01T23:32:18.356Z,100123.46
2019-05-01T23:37:20.820Z,100117.29
2019-05-01T23:42:23.295Z,100113.16
2019-05-01T23:47:25.759Z,100112.16
2019-05-01T23:52:28.218Z,100110.73
2019-05-01T23:57:30.679Z,100104.45
